Saint-Bruno-De-Guigues, Canada
Current Conditions -  °F | °C
As of 5:00 AM on Wednesday 22 Oct 2014 (Local Time) from CYXR Reporting Station
Clear Clear  
Wind Chill: 18°   Ceiling: Unl
Heat Index: 27°   Visibility: 9mi
Dew Point: 25°   Wind: 8mph
Humidity: 93%   Direction: 340°NNW
Pressure: 30.38"   Gusts: NA
Location:  47.47°N, 79.43°W
Report Text: CYXR 220900Z AUTO 34007KT 9SM CLR M03/M04 A3038 RMK SLP300
Loading
Personal Weather Stations






























Interactive Weather Map
Tropical Storm Tracking
New forecast layout! Learn more

10-Day Weather Forecast

Advertisements
Track Severe Weather on mobile